Time,TemperatureF,DewpointF,PressureIn,WindDirection,WindDirectionDegrees,WindSpeedMPH,WindSpeedGustMPH,Humidity,HourlyPrecipIn,Conditions,Clouds,dailyrainin,SoftwareType,DateUTC
2013-10-24 00:01:00,43.3,8.0,0.00,West,279,2.7,3.1,23,0.00,,---,0.00,VWS V14.01,2013-10-24 04:01:00,
2013-10-24 00:03:00,43.3,8.0,0.00,West,265,0.0,0.0,23,0.00,,---,0.00,VWS V14.01,2013-10-24 04:03:00,
2013-10-24 00:05:00,43.3,8.0,0.00,West,265,0.0,0.0,23,0.00,,---,0.00,VWS V14.01,2013-10-24 04:05:00,
2013-10-24 00:07:00,43.3,8.0,0.00,West,265,0.0,0.0,23,0.00,,---,0.00,VWS V14.01,2013-10-24 04:07:00,
2013-10-24 00:08:00,43.3,8.0,0.00,West,265,0.0,0.0,23,0.00,,---,0.00,VWS V14.01,2013-10-24 04:08:00,
2013-10-24 00:09:00,43.3,8.0,0.00,West,265,0.0,0.0,23,0.00,,---,0.00,VWS V14.01,2013-10-24 04:09:00,
2013-10-24 00:14:00,43.2,7.9,0.00,WNW,283,0.0,0.0,23,0.00,,---,0.00,VWS V14.01,2013-10-24 04:14:00,
2013-10-24 00:19:00,43.0,7.7,0.00,WNW,283,0.0,0.0,23,0.00,,---,0.00,VWS V14.01,2013-10-24 04:19:00,
2013-10-24 00:24:00,43.0,7.7,0.00,West,267,0.0,0.0,23,0.00,,---,0.00,VWS V14.01,2013-10-24 04:24:00,
2013-10-24 00:29:00,42.8,7.6,0.00,West,266,0.0,0.0,23,0.00,,---,0.00,VWS V14.01,2013-10-24 04:29:00,
2013-10-24 00:35:00,42.8,7.6,0.00,West,267,0.0,0.0,23,0.00,,---,0.00,VWS V14.01,2013-10-24 04:35:00,
2013-10-24 00:40:00,42.8,7.6,0.00,West,267,0.0,0.0,23,0.00,,---,0.00,VWS V14.01,2013-10-24 04:40:00,
2013-10-24 00:46:00,42.4,7.3,0.00,West,279,0.0,0.0,23,0.00,,---,0.00,VWS V14.01,2013-10-24 04:46:00,
2013-10-24 00:51:00,42.4,7.3,0.00,West,276,0.0,0.0,23,0.00,,---,0.00,VWS V14.01,2013-10-24 04:51:00,
2013-10-24 00:57:00,42.3,7.1,0.00,West,261,0.0,0.0,23,0.00,,---,0.00,VWS V14.01,2013-10-24 04:57:00,
2013-10-24 01:02:00,42.3,7.1,0.00,West,261,0.0,0.0,23,0.00,,---,0.00,VWS V14.01,2013-10-24 05:02:00,
2013-10-24 01:08:00,42.1,7.0,0.00,West,261,0.0,0.0,23,0.00,,---,0.00,VWS V14.01,2013-10-24 05:08:00,
2013-10-24 01:14:00,42.1,7.0,0.00,West,261,0.0,0.0,23,0.00,,---,0.00,VWS V14.01,2013-10-24 05:14:00,
2013-10-24 01:19:00,41.7,6.7,0.00,West,261,0.0,0.0,23,0.00,,---,0.00,VWS V14.01,2013-10-24 05:19:00,
2013-10-24 01:25:00,41.7,6.7,0.00,West,261,0.0,0.0,23,0.00,,---,0.00,VWS V14.01,2013-10-24 05:25:00,
2013-10-24 01:30:00,41.5,6.5,0.00,West,261,0.0,0.0,23,0.00,,---,0.00,VWS V14.01,2013-10-24 05:30:00,
2013-10-24 01:36:00,41.2,6.2,0.00,West,261,0.0,0.0,23,0.00,,---,0.00,VWS V14.01,2013-10-24 05:36:00,
2013-10-24 01:41:00,41.0,6.1,0.00,West,259,0.0,0.0,23,0.00,,---,0.00,VWS V14.01,2013-10-24 05:41:00,
2013-10-24 01:47:00,40.8,8.6,0.00,West,261,0.0,0.0,26,0.00,,---,0.00,VWS V14.01,2013-10-24 05:47:00,
2013-10-24 01:53:00,40.5,8.3,0.00,West,261,0.0,0.0,26,0.00,,---,0.00,VWS V14.01,2013-10-24 05:53:00,
2013-10-24 01:58:00,40.3,8.1,0.00,West,260,0.0,0.0,26,0.00,,---,0.00,VWS V14.01,2013-10-24 05:58:00,
2013-10-24 02:04:00,40.1,8.0,0.00,West,261,0.0,0.0,26,0.00,,---,0.00,VWS V14.01,2013-10-24 06:04:00,
2013-10-24 02:09:00,39.7,7.7,0.00,West,261,0.0,0.0,26,0.00,,---,0.00,VWS V14.01,2013-10-24 06:09:00,
2013-10-24 02:14:00,39.7,9.3,0.00,West,261,0.0,0.0,28,0.00,,---,0.00,VWS V14.01,2013-10-24 06:14:00,
2013-10-24 02:19:00,39.7,9.3,0.00,West,261,0.0,0.0,28,0.00,,---,0.00,VWS V14.01,2013-10-24 06:19:00,
2013-10-24 02:25:00,40.1,10.4,0.00,West,261,0.0,0.0,29,0.00,,---,0.00,VWS V14.01,2013-10-24 06:25:00,
2013-10-24 02:31:00,40.5,10.7,0.00,West,261,0.0,0.0,29,0.00,,---,0.00,VWS V14.01,2013-10-24 06:31:00,
2013-10-24 02:36:00,40.6,10.9,0.00,West,261,0.0,0.0,29,0.00,,---,0.00,VWS V14.01,2013-10-24 06:36:00,
2013-10-24 02:42:00,41.0,10.4,0.00,West,281,0.0,0.0,28,0.00,,---,0.00,VWS V14.01,2013-10-24 06:42:00,
2013-10-24 02:47:00,41.0,10.4,0.00,West,273,0.0,0.0,28,0.00,,---,0.00,VWS V14.01,2013-10-24 06:47:00,
2013-10-24 02:53:00,41.2,10.6,0.00,West,265,0.0,0.0,28,0.00,,---,0.00,VWS V14.01,2013-10-24 06:53:00,
2013-10-24 02:58:00,41.2,10.6,0.00,WSW,248,0.0,0.0,28,0.00,,---,0.00,VWS V14.01,2013-10-24 06:58:00,
2013-10-24 03:04:00,41.2,8.9,0.00,West,281,0.0,0.0,26,0.00,,---,0.00,VWS V14.01,2013-10-24 07:04:00,
2013-10-24 03:10:00,41.2,8.9,0.00,West,279,0.0,0.0,26,0.00,,---,0.00,VWS V14.01,2013-10-24 07:10:00,
2013-10-24 03:16:00,41.0,8.8,0.00,WNW,295,0.0,0.0,26,0.00,,---,0.00,VWS V14.01,2013-10-24 07:16:00,
2013-10-24 03:22:00,41.0,8.8,0.00,WSW,249,0.0,0.0,26,0.00,,---,0.00,VWS V14.01,2013-10-24 07:22:00,
2013-10-24 03:27:00,40.8,8.6,0.00,WSW,249,0.0,0.0,26,0.00,,---,0.00,VWS V14.01,2013-10-24 07:27:00,
2013-10-24 03:32:00,40.6,8.4,0.00,West,279,0.0,0.0,26,0.00,,---,0.00,VWS V14.01,2013-10-24 07:32:00,
2013-10-24 03:38:00,40.5,8.3,0.00,West,269,0.0,0.0,26,0.00,,---,0.00,VWS V14.01,2013-10-24 07:38:00,
2013-10-24 03:43:00,40.5,8.3,0.00,West,269,0.0,0.0,26,0.00,,---,0.00,VWS V14.01,2013-10-24 07:43:00,
2013-10-24 03:49:00,40.3,8.1,0.00,West,269,0.0,0.0,26,0.00,,---,0.00,VWS V14.01,2013-10-24 07:49:00,
2013-10-24 03:54:00,40.3,8.1,0.00,West,269,0.0,0.0,26,0.00,,---,0.00,VWS V14.01,2013-10-24 07:54:00,
2013-10-24 03:59:00,39.9,7.8,0.00,West,280,0.0,0.0,26,0.00,,---,0.00,VWS V14.01,2013-10-24 07:59:00,
2013-10-24 04:04:00,39.9,7.8,0.00,West,281,0.0,0.0,26,0.00,,---,0.00,VWS V14.01,2013-10-24 08:04:00,
2013-10-24 04:10:00,39.7,7.7,0.00,WNW,285,0.0,0.0,26,0.00,,---,0.00,VWS V14.01,2013-10-24 08:10:00,
2013-10-24 04:16:00,39.4,7.4,0.00,NW,306,0.0,0.0,26,0.00,,---,0.00,VWS V14.01,2013-10-24 08:16:00,
2013-10-24 04:21:00,39.4,7.4,0.00,NW,320,0.0,0.0,26,0.00,,---,0.00,VWS V14.01,2013-10-24 08:21:00,
2013-10-24 04:27:00,39.4,7.4,0.00,West,272,0.0,0.0,26,0.00,,---,0.00,VWS V14.01,2013-10-24 08:27:00,
2013-10-24 04:32:00,39.4,7.4,0.00,SW,231,2.2,2.2,26,0.00,,---,0.00,VWS V14.01,2013-10-24 08:32:00,
2013-10-24 04:38:00,39.2,7.2,0.00,WNW,288,0.0,0.0,26,0.00,,---,0.00,VWS V14.01,2013-10-24 08:38:00,
2013-10-24 04:44:00,39.2,7.2,0.00,West,265,0.0,0.0,26,0.00,,---,0.00,VWS V14.01,2013-10-24 08:44:00,
2013-10-24 04:49:00,39.2,8.9,0.00,NW,305,0.0,2.7,28,0.00,,---,0.00,VWS V14.01,2013-10-24 08:49:00,
2013-10-24 04:55:00,39.2,8.9,0.00,West,266,0.0,0.0,28,0.00,,---,0.00,VWS V14.01,2013-10-24 08:55:00,
2013-10-24 05:01:00,39.2,8.9,0.00,NNW,327,0.0,0.0,28,0.00,,---,0.00,VWS V14.01,2013-10-24 09:01:00,
2013-10-24 05:07:00,39.2,8.9,0.00,West,271,2.2,2.7,28,0.00,,---,0.00,VWS V14.01,2013-10-24 09:07:00,
2013-10-24 05:13:00,39.2,8.9,0.00,NW,326,0.0,0.0,28,0.00,,---,0.00,VWS V14.01,2013-10-24 09:13:00,
2013-10-24 05:19:00,39.2,8.9,0.00,WNW,289,0.0,2.7,28,0.00,,---,0.00,VWS V14.01,2013-10-24 09:19:00,
2013-10-24 05:24:00,39.0,9.5,0.00,West,263,0.0,0.0,29,0.00,,---,0.00,VWS V14.01,2013-10-24 09:24:00,
2013-10-24 05:29:00,39.0,9.5,0.00,WNW,289,0.0,0.0,29,0.00,,---,0.00,VWS V14.01,2013-10-24 09:29:00,
2013-10-24 05:34:00,39.0,9.5,0.00,West,281,0.0,0.0,29,0.00,,---,0.00,VWS V14.01,2013-10-24 09:34:00,
2013-10-24 05:40:00,38.8,9.3,0.00,WNW,290,2.7,2.7,29,0.00,,---,0.00,VWS V14.01,2013-10-24 09:40:00,
2013-10-24 05:45:00,38.8,9.3,0.00,NW,318,0.0,0.0,29,0.00,,---,0.00,VWS V14.01,2013-10-24 09:45:00,
2013-10-24 05:50:00,38.8,9.3,0.00,WNW,282,0.0,0.0,29,0.00,,---,0.00,VWS V14.01,2013-10-24 09:50:00,
2013-10-24 05:55:00,38.7,9.2,0.00,WNW,282,0.0,0.0,29,0.00,,---,0.00,VWS V14.01,2013-10-24 09:55:00,
2013-10-24 06:01:00,38.7,9.2,0.00,WNW,301,0.0,0.0,29,0.00,,---,0.00,VWS V14.01,2013-10-24 10:01:00,
2013-10-24 06:06:00,38.5,9.0,0.00,WNW,287,0.0,0.0,29,0.00,,---,0.00,VWS V14.01,2013-10-24 10:06:00,
2013-10-24 06:12:00,38.5,9.0,0.00,West,280,0.0,0.0,29,0.00,,---,0.00,VWS V14.01,2013-10-24 10:12:00,
2013-10-24 06:18:00,38.5,9.0,0.00,West,280,0.0,2.2,29,0.00,,---,0.00,VWS V14.01,2013-10-24 10:18:00,
2013-10-24 06:23:00,38.5,9.0,0.00,WNW,288,0.0,0.0,29,0.00,,---,0.00,VWS V14.01,2013-10-24 10:23:00,
2013-10-24 06:29:00,38.3,8.8,0.00,West,278,0.0,0.0,29,0.00,,---,0.00,VWS V14.01,2013-10-24 10:29:00,
2013-10-24 06:34:00,38.3,9.6,0.00,West,261,0.0,0.0,30,0.00,,---,0.00,VWS V14.01,2013-10-24 10:34:00,
2013-10-24 06:40:00,38.1,9.4,0.00,NW,311,0.0,0.0,30,0.00,,---,0.00,VWS V14.01,2013-10-24 10:40:00,
2013-10-24 06:46:00,38.1,9.4,0.00,WNW,302,0.0,0.0,30,0.00,,---,0.00,VWS V14.01,2013-10-24 10:46:00,
2013-10-24 06:51:00,37.9,9.3,0.00,WNW,303,0.0,0.0,30,0.00,,---,0.00,VWS V14.01,2013-10-24 10:51:00,
2013-10-24 06:57:00,37.9,9.3,0.00,WNW,303,0.0,0.0,30,0.00,,---,0.00,VWS V14.01,2013-10-24 10:57:00,
2013-10-24 07:02:00,37.8,9.1,0.00,WNW,303,0.0,0.0,30,0.00,,---,0.00,VWS V14.01,2013-10-24 11:02:00,
2013-10-24 07:08:00,37.6,9.0,0.00,WNW,303,0.0,0.0,30,0.00,,---,0.00,VWS V14.01,2013-10-24 11:08:00,
2013-10-24 07:13:00,37.6,9.0,0.00,WNW,303,0.0,0.0,30,0.00,,---,0.00,VWS V14.01,2013-10-24 11:13:00,
2013-10-24 07:19:00,37.4,8.8,0.00,WNW,303,0.0,0.0,30,0.00,,---,0.00,VWS V14.01,2013-10-24 11:19:00,
2013-10-24 07:25:00,37.2,8.6,0.00,WNW,303,0.0,0.0,30,0.00,,---,0.00,VWS V14.01,2013-10-24 11:25:00,
2013-10-24 07:30:00,37.4,8.8,0.00,WNW,303,0.0,0.0,30,0.00,,---,0.00,VWS V14.01,2013-10-24 11:30:00,
2013-10-24 07:36:00,37.4,8.8,0.00,WNW,303,0.0,0.0,30,0.00,,---,0.00,VWS V14.01,2013-10-24 11:36:00,
2013-10-24 07:42:00,37.6,9.7,0.00,West,267,0.0,0.0,31,0.00,,---,0.00,VWS V14.01,2013-10-24 11:42:00,
2013-10-24 07:47:00,37.8,9.9,0.00,West,277,0.0,0.0,31,0.00,,---,0.00,VWS V14.01,2013-10-24 11:47:00,
2013-10-24 07:53:00,38.1,10.2,0.00,West,265,0.0,0.0,31,0.00,,---,0.00,VWS V14.01,2013-10-24 11:53:00,
2013-10-24 07:58:00,38.3,10.3,0.00,NNW,329,0.0,0.0,31,0.00,,---,0.00,VWS V14.01,2013-10-24 11:58:00,
2013-10-24 08:04:00,38.7,10.6,0.00,WNW,289,0.0,3.1,31,0.00,,---,0.00,VWS V14.01,2013-10-24 12:04:00,
2013-10-24 08:09:00,38.8,10.8,0.00,West,279,0.0,0.0,31,0.00,,---,0.00,VWS V14.01,2013-10-24 12:09:00,
2013-10-24 08:15:00,39.2,10.4,0.00,North,353,0.0,0.0,30,0.00,,---,0.00,VWS V14.01,2013-10-24 12:15:00,
2013-10-24 08:21:00,39.4,10.5,0.00,West,276,0.0,0.0,30,0.00,,---,0.00,VWS V14.01,2013-10-24 12:21:00,
2013-10-24 08:26:00,39.7,10.9,0.00,NNW,328,0.0,0.0,30,0.00,,---,0.00,VWS V14.01,2013-10-24 12:26:00,
2013-10-24 08:32:00,39.9,10.2,0.00,North,353,0.0,0.0,29,0.00,,---,0.00,VWS V14.01,2013-10-24 12:32:00,
2013-10-24 08:37:00,40.3,10.6,0.00,WNW,284,0.0,0.0,29,0.00,,---,0.00,VWS V14.01,2013-10-24 12:37:00,
2013-10-24 08:43:00,40.6,10.9,0.00,WSW,251,3.1,3.6,29,0.00,,---,0.00,VWS V14.01,2013-10-24 12:43:00,
2013-10-24 08:48:00,40.8,11.0,0.00,West,275,0.0,0.0,29,0.00,,---,0.00,VWS V14.01,2013-10-24 12:48:00,
2013-10-24 08:54:00,41.2,10.6,0.00,NNW,348,0.0,3.1,28,0.00,,---,0.00,VWS V14.01,2013-10-24 12:54:00,
2013-10-24 09:00:00,41.7,9.4,0.00,WNW,294,0.0,0.0,26,0.00,,---,0.00,VWS V14.01,2013-10-24 13:00:00,
2013-10-24 09:05:00,41.9,9.5,0.00,NNE,14,0.0,0.0,26,0.00,,---,0.00,VWS V14.01,2013-10-24 13:05:00,
2013-10-24 09:11:00,42.3,9.8,0.00,NNE,16,0.0,0.0,26,0.00,,---,0.00,VWS V14.01,2013-10-24 13:11:00,
2013-10-24 09:16:00,42.4,10.0,0.00,West,281,0.0,0.0,26,0.00,,---,0.00,VWS V14.01,2013-10-24 13:16:00,
2013-10-24 09:22:00,43.0,7.7,0.00,West,281,0.0,0.0,23,0.00,,---,0.00,VWS V14.01,2013-10-24 13:22:00,
2013-10-24 09:28:00,43.3,8.0,0.00,NNE,14,0.0,0.0,23,0.00,,---,0.00,VWS V14.01,2013-10-24 13:28:00,
2013-10-24 09:33:00,43.7,8.3,0.00,NW,311,0.0,0.0,23,0.00,,---,0.00,VWS V14.01,2013-10-24 13:33:00,
2013-10-24 09:39:00,44.2,8.8,0.00,West,279,2.7,6.3,23,0.00,,---,0.00,VWS V14.01,2013-10-24 13:39:00,
2013-10-24 09:44:00,44.6,8.1,0.00,NNW,339,0.0,0.0,22,0.00,,---,0.00,VWS V14.01,2013-10-24 13:44:00,
2013-10-24 09:50:00,45.1,8.6,0.00,WNW,298,0.0,0.0,22,0.00,,---,0.00,VWS V14.01,2013-10-24 13:50:00,
2013-10-24 09:55:00,45.5,8.9,0.00,South,182,0.0,0.0,22,0.00,,---,0.00,VWS V14.01,2013-10-24 13:55:00,
2013-10-24 10:00:00,45.9,9.2,0.00,NW,320,0.0,0.0,22,0.00,,---,0.00,VWS V14.01,2013-10-24 14:00:00,
2013-10-24 10:06:00,46.2,9.5,0.00,SW,236,4.0,4.0,22,0.00,,---,0.00,VWS V14.01,2013-10-24 14:06:00,
2013-10-24 10:11:00,46.4,6.4,0.00,NNW,342,3.1,3.1,19,0.00,,---,0.00,VWS V14.01,2013-10-24 14:11:00,
2013-10-24 10:16:00,46.6,6.5,0.00,West,276,4.9,4.9,19,0.00,,---,0.00,VWS V14.01,2013-10-24 14:16:00,
2013-10-24 10:21:00,46.8,6.7,0.00,SSW,212,0.0,3.1,19,0.00,,---,0.00,VWS V14.01,2013-10-24 14:21:00,
2013-10-24 10:27:00,47.1,7.0,0.00,NW,326,2.7,2.7,19,0.00,,---,0.00,VWS V14.01,2013-10-24 14:27:00,
2013-10-24 10:32:00,47.3,7.1,0.00,WSW,239,0.0,3.6,19,0.00,,---,0.00,VWS V14.01,2013-10-24 14:32:00,
2013-10-24 10:38:00,47.7,7.4,0.00,West,266,3.6,4.0,19,0.00,,---,0.00,VWS V14.01,2013-10-24 14:38:00,
2013-10-24 10:43:00,48.0,7.7,0.00,WSW,244,0.0,5.8,19,0.00,,---,0.00,VWS V14.01,2013-10-24 14:43:00,
2013-10-24 10:49:00,48.4,8.0,0.00,West,260,3.6,5.4,19,0.00,,---,0.00,VWS V14.01,2013-10-24 14:49:00,
2013-10-24 10:55:00,48.6,8.2,0.00,NNE,19,2.7,2.7,19,0.00,,---,0.00,VWS V14.01,2013-10-24 14:55:00,
2013-10-24 11:00:00,48.9,8.5,0.00,West,277,0.0,3.1,19,0.00,,---,0.00,VWS V14.01,2013-10-24 15:00:00,
2013-10-24 11:06:00,49.3,8.8,0.00,NW,307,2.7,2.7,19,0.00,,---,0.00,VWS V14.01,2013-10-24 15:06:00,
2013-10-24 11:11:00,49.5,8.9,0.00,WNW,299,2.7,5.8,19,0.00,,---,0.00,VWS V14.01,2013-10-24 15:11:00,
2013-10-24 11:17:00,49.8,9.2,0.00,NNW,346,3.6,5.8,19,0.00,,---,0.00,VWS V14.01,2013-10-24 15:17:00,
2013-10-24 11:22:00,49.8,9.2,0.00,North,353,2.7,4.0,19,0.00,,---,0.00,VWS V14.01,2013-10-24 15:22:00,
2013-10-24 11:28:00,49.8,9.2,0.00,West,273,0.0,2.7,19,0.00,,---,0.00,VWS V14.01,2013-10-24 15:28:00,
2013-10-24 11:33:00,50.2,9.5,0.00,NNW,344,2.7,4.9,19,0.00,,---,0.00,VWS V14.01,2013-10-24 15:33:00,
2013-10-24 11:38:00,50.2,9.5,0.00,North,3,4.0,5.4,19,0.00,,---,0.00,VWS V14.01,2013-10-24 15:38:00,
2013-10-24 11:44:00,50.2,9.5,0.00,North,353,3.1,6.3,19,0.00,,---,0.00,VWS V14.01,2013-10-24 15:44:00,
2013-10-24 11:49:00,50.4,9.7,0.00,South,174,4.0,4.0,19,0.00,,---,0.00,VWS V14.01,2013-10-24 15:49:00,
2013-10-24 11:54:00,50.5,9.8,0.00,West,266,2.7,3.6,19,0.00,,---,0.00,VWS V14.01,2013-10-24 15:54:00,
2013-10-24 11:59:00,50.9,10.1,0.00,NE,34,0.0,3.1,19,0.00,,---,0.00,VWS V14.01,2013-10-24 15:59:00,
2013-10-24 12:05:00,50.9,10.1,0.00,SW,218,2.7,3.1,19,0.00,,---,0.00,VWS V14.01,2013-10-24 16:05:00,
2013-10-24 12:10:00,50.9,10.1,0.00,NW,308,3.6,3.6,19,0.00,,---,0.00,VWS V14.01,2013-10-24 16:10:00,
2013-10-24 12:16:00,51.4,10.6,0.00,NE,34,3.6,3.6,19,0.00,,---,0.00,VWS V14.01,2013-10-24 16:16:00,
2013-10-24 12:21:00,52.0,9.8,0.00,NE,56,0.0,4.9,18,0.00,,---,0.00,VWS V14.01,2013-10-24 16:21:00,
2013-10-24 12:26:00,52.9,10.6,0.00,WNW,290,0.0,3.1,18,0.00,,---,0.00,VWS V14.01,2013-10-24 16:26:00,
2013-10-24 12:31:00,53.2,10.9,0.00,NE,56,0.0,0.0,18,0.00,,---,0.00,VWS V14.01,2013-10-24 16:31:00,
2013-10-24 12:37:00,53.1,10.7,0.00,WNW,293,3.6,4.9,18,0.00,,---,0.00,VWS V14.01,2013-10-24 16:37:00,
2013-10-24 12:42:00,53.2,10.9,0.00,South,176,0.0,2.2,18,0.00,,---,0.00,VWS V14.01,2013-10-24 16:42:00,
2013-10-24 12:48:00,53.6,11.1,0.00,East,97,2.7,3.1,18,0.00,,---,0.00,VWS V14.01,2013-10-24 16:48:00,
2013-10-24 12:54:00,54.0,11.4,0.00,NE,38,0.0,0.0,18,0.00,,---,0.00,VWS V14.01,2013-10-24 16:54:00,
2013-10-24 12:59:00,54.3,11.7,0.00,WNW,296,3.1,3.1,18,0.00,,---,0.00,VWS V14.01,2013-10-24 16:59:00,
2013-10-24 13:05:00,54.5,11.9,0.00,North,349,2.7,2.7,18,0.00,,---,0.00,VWS V14.01,2013-10-24 17:05:00,
2013-10-24 13:10:00,54.3,11.7,0.00,NNW,334,3.1,4.0,18,0.00,,---,0.00,VWS V14.01,2013-10-24 17:10:00,
2013-10-24 13:16:00,54.1,11.6,0.00,NW,311,5.4,5.8,18,0.00,,---,0.00,VWS V14.01,2013-10-24 17:16:00,
2013-10-24 13:22:00,54.0,11.4,0.00,West,266,4.0,4.0,18,0.00,,---,0.00,VWS V14.01,2013-10-24 17:22:00,
2013-10-24 13:27:00,54.1,11.6,0.00,SSE,163,0.0,3.6,18,0.00,,---,0.00,VWS V14.01,2013-10-24 17:27:00,
2013-10-24 13:32:00,54.5,11.9,0.00,NNW,338,3.1,3.1,18,0.00,,---,0.00,VWS V14.01,2013-10-24 17:32:00,
2013-10-24 13:37:00,54.5,11.9,0.00,NNE,15,0.0,4.0,18,0.00,,---,0.00,VWS V14.01,2013-10-24 17:37:00,
2013-10-24 13:43:00,54.5,11.9,0.00,West,280,3.6,8.3,18,0.00,,---,0.00,VWS V14.01,2013-10-24 17:43:00,
2013-10-24 13:48:00,54.5,11.9,0.00,NNE,26,3.6,3.6,18,0.00,,---,0.00,VWS V14.01,2013-10-24 17:48:00,
2013-10-24 13:54:00,54.1,11.6,0.00,NNE,15,3.1,3.1,18,0.00,,---,0.00,VWS V14.01,2013-10-24 17:54:00,
2013-10-24 13:59:00,53.8,11.3,0.00,North,353,3.6,4.0,18,0.00,,---,0.00,VWS V14.01,2013-10-24 17:59:00,
2013-10-24 14:04:00,53.8,11.3,0.00,NNE,20,2.2,3.1,18,0.00,,---,0.00,VWS V14.01,2013-10-24 18:04:00,
2013-10-24 14:09:00,54.5,11.9,0.00,ESE,109,2.2,3.1,18,0.00,,---,0.00,VWS V14.01,2013-10-24 18:09:00,
2013-10-24 14:15:00,54.7,12.0,0.00,West,275,5.4,7.6,18,0.00,,---,0.00,VWS V14.01,2013-10-24 18:15:00,
2013-10-24 14:20:00,54.7,12.0,0.00,WSW,254,3.1,4.0,18,0.00,,---,0.00,VWS V14.01,2013-10-24 18:20:00,
2013-10-24 14:26:00,54.3,11.7,0.00,SW,225,4.0,4.0,18,0.00,,---,0.00,VWS V14.01,2013-10-24 18:26:00,
2013-10-24 14:32:00,54.5,11.9,0.00,West,264,3.1,4.5,18,0.00,,---,0.00,VWS V14.01,2013-10-24 18:32:00,
2013-10-24 14:37:00,54.9,12.2,0.00,WSW,244,3.1,4.0,18,0.00,,---,0.00,VWS V14.01,2013-10-24 18:37:00,
2013-10-24 14:43:00,55.6,11.5,0.00,NW,311,5.4,5.4,17,0.00,,---,0.00,VWS V14.01,2013-10-24 18:43:00,
2013-10-24 14:48:00,55.9,11.8,0.00,NW,316,4.0,4.0,17,0.00,,---,0.00,VWS V14.01,2013-10-24 18:48:00,
2013-10-24 14:54:00,56.3,12.1,0.00,North,0,3.1,4.0,17,0.00,,---,0.00,VWS V14.01,2013-10-24 18:54:00,
2013-10-24 14:59:00,56.3,12.1,0.00,SSW,200,2.7,4.0,17,0.00,,---,0.00,VWS V14.01,2013-10-24 18:59:00,
2013-10-24 15:05:00,56.1,11.9,0.00,NW,324,0.0,4.5,17,0.00,,---,0.00,VWS V14.01,2013-10-24 19:05:00,
2013-10-24 15:10:00,55.6,11.5,0.00,WNW,290,5.4,6.3,17,0.00,,---,0.00,VWS V14.01,2013-10-24 19:10:00,
2013-10-24 15:15:00,55.4,11.3,0.00,WSW,242,4.9,8.3,17,0.00,,---,0.00,VWS V14.01,2013-10-24 19:15:00,
2013-10-24 15:20:00,54.9,12.2,0.00,WSW,243,0.0,0.0,18,0.00,,---,0.00,VWS V14.01,2013-10-24 19:20:00,
2013-10-24 15:26:00,54.3,11.7,0.00,North,353,3.1,4.0,18,0.00,,---,0.00,VWS V14.01,2013-10-24 19:26:00,
2013-10-24 15:32:00,54.7,12.0,0.00,WNW,289,4.9,5.8,18,0.00,,---,0.00,VWS V14.01,2013-10-24 19:32:00,
2013-10-24 15:37:00,54.7,12.0,0.00,West,269,2.7,8.3,18,0.00,,---,0.00,VWS V14.01,2013-10-24 19:37:00,
2013-10-24 15:43:00,54.3,11.7,0.00,SW,230,0.0,0.0,18,0.00,,---,0.00,VWS V14.01,2013-10-24 19:43:00,
2013-10-24 15:48:00,54.5,11.9,0.00,North,7,0.0,2.2,18,0.00,,---,0.00,VWS V14.01,2013-10-24 19:48:00,
2013-10-24 15:54:00,55.0,12.3,0.00,NNW,335,4.9,4.9,18,0.00,,---,0.00,VWS V14.01,2013-10-24 19:54:00,
2013-10-24 15:59:00,54.5,11.9,0.00,NW,321,0.0,4.0,18,0.00,,---,0.00,VWS V14.01,2013-10-24 19:59:00,
2013-10-24 16:05:00,53.2,10.9,0.00,WNW,298,3.6,4.9,18,0.00,,---,0.00,VWS V14.01,2013-10-24 20:05:00,
2013-10-24 16:10:00,52.5,10.2,0.00,North,5,3.1,4.9,18,0.00,,---,0.00,VWS V14.01,2013-10-24 20:10:00,
2013-10-24 16:15:00,52.0,9.8,0.00,ENE,59,0.0,0.0,18,0.00,,---,0.00,VWS V14.01,2013-10-24 20:15:00,
2013-10-24 16:21:00,51.4,10.6,0.00,West,278,0.0,0.0,19,0.00,,---,0.00,VWS V14.01,2013-10-24 20:21:00,
2013-10-24 16:26:00,51.3,10.4,0.00,SSW,203,2.7,3.1,19,0.00,,---,0.00,VWS V14.01,2013-10-24 20:26:00,
2013-10-24 16:32:00,50.9,10.1,0.00,WNW,292,0.0,2.2,19,0.00,,---,0.00,VWS V14.01,2013-10-24 20:32:00,
2013-10-24 16:38:00,50.9,10.1,0.00,North,353,2.2,4.0,19,0.00,,---,0.00,VWS V14.01,2013-10-24 20:38:00,
2013-10-24 16:43:00,50.9,10.1,0.00,SSE,162,0.0,4.0,19,0.00,,---,0.00,VWS V14.01,2013-10-24 20:43:00,
2013-10-24 16:49:00,50.7,10.0,0.00,SW,223,2.2,3.1,19,0.00,,---,0.00,VWS V14.01,2013-10-24 20:49:00,
2013-10-24 16:54:00,50.5,9.8,0.00,WNW,297,0.0,0.0,19,0.00,,---,0.00,VWS V14.01,2013-10-24 20:54:00,
2013-10-24 17:00:00,50.2,9.5,0.00,NE,35,2.7,3.6,19,0.00,,---,0.00,VWS V14.01,2013-10-24 21:00:00,
2013-10-24 17:06:00,50.4,9.7,0.00,NW,323,2.2,4.0,19,0.00,,---,0.00,VWS V14.01,2013-10-24 21:06:00,
2013-10-24 17:11:00,50.4,9.7,0.00,WNW,283,0.0,0.0,19,0.00,,---,0.00,VWS V14.01,2013-10-24 21:11:00,
2013-10-24 17:17:00,50.2,9.5,0.00,WNW,289,3.6,4.0,19,0.00,,---,0.00,VWS V14.01,2013-10-24 21:17:00,
2013-10-24 17:22:00,50.0,9.4,0.00,WNW,287,0.0,0.0,19,0.00,,---,0.00,VWS V14.01,2013-10-24 21:22:00,
2013-10-24 17:27:00,49.8,9.2,0.00,NNW,329,0.0,0.0,19,0.00,,---,0.00,VWS V14.01,2013-10-24 21:27:00,
2013-10-24 17:32:00,49.6,9.1,0.00,WNW,289,0.0,2.2,19,0.00,,---,0.00,VWS V14.01,2013-10-24 21:32:00,
2013-10-24 17:38:00,49.5,8.9,0.00,West,278,0.0,0.0,19,0.00,,---,0.00,VWS V14.01,2013-10-24 21:38:00,
2013-10-24 17:43:00,49.3,8.8,0.00,West,265,0.0,2.2,19,0.00,,---,0.00,VWS V14.01,2013-10-24 21:43:00,
2013-10-24 17:48:00,49.1,8.6,0.00,WNW,301,0.0,0.0,19,0.00,,---,0.00,VWS V14.01,2013-10-24 21:48:00,
2013-10-24 17:53:00,48.7,8.3,0.00,WNW,294,0.0,0.0,19,0.00,,---,0.00,VWS V14.01,2013-10-24 21:53:00,
2013-10-24 17:58:00,48.6,8.2,0.00,West,269,3.6,3.6,19,0.00,,---,0.00,VWS V14.01,2013-10-24 21:58:00,
2013-10-24 18:03:00,48.4,8.0,0.00,NW,306,0.0,0.0,19,0.00,,---,0.00,VWS V14.01,2013-10-24 22:03:00,
2013-10-24 18:09:00,48.4,8.0,0.00,SSW,207,0.0,3.1,19,0.00,,---,0.00,VWS V14.01,2013-10-24 22:09:00,
2013-10-24 18:14:00,48.4,8.0,0.00,NW,308,0.0,0.0,19,0.00,,---,0.00,VWS V14.01,2013-10-24 22:14:00,
2013-10-24 18:20:00,48.0,7.7,0.00,West,271,0.0,0.0,19,0.00,,---,0.00,VWS V14.01,2013-10-24 22:20:00,
2013-10-24 18:25:00,47.8,7.6,0.00,NNW,343,5.8,6.3,19,0.00,,---,0.00,VWS V14.01,2013-10-24 22:25:00,
2013-10-24 18:31:00,47.7,7.4,0.00,NW,320,0.0,0.0,19,0.00,,---,0.00,VWS V14.01,2013-10-24 22:31:00,
2013-10-24 18:36:00,47.7,7.4,0.00,WSW,256,3.1,3.1,19,0.00,,---,0.00,VWS V14.01,2013-10-24 22:36:00,
2013-10-24 18:41:00,47.5,7.3,0.00,NW,311,0.0,0.0,19,0.00,,---,0.00,VWS V14.01,2013-10-24 22:41:00,
2013-10-24 18:46:00,47.3,7.1,0.00,NW,326,0.0,0.0,19,0.00,,---,0.00,VWS V14.01,2013-10-24 22:46:00,
2013-10-24 18:52:00,47.3,7.1,0.00,WNW,295,0.0,0.0,19,0.00,,---,0.00,VWS V14.01,2013-10-24 22:52:00,
2013-10-24 18:58:00,47.3,7.1,0.00,WNW,293,0.0,0.0,19,0.00,,---,0.00,VWS V14.01,2013-10-24 22:58:00,
2013-10-24 19:03:00,47.1,7.0,0.00,WNW,292,0.0,0.0,19,0.00,,---,0.00,VWS V14.01,2013-10-24 23:03:00,
2013-10-24 19:09:00,46.8,6.7,0.00,West,266,0.0,0.0,19,0.00,,---,0.00,VWS V14.01,2013-10-24 23:09:00,
2013-10-24 19:14:00,46.8,6.7,0.00,NW,325,0.0,0.0,19,0.00,,---,0.00,VWS V14.01,2013-10-24 23:14:00,
2013-10-24 19:20:00,46.4,6.4,0.00,NNW,346,2.7,4.0,19,0.00,,---,0.00,VWS V14.01,2013-10-24 23:20:00,
2013-10-24 19:26:00,46.4,6.4,0.00,NW,307,0.0,0.0,19,0.00,,---,0.00,VWS V14.01,2013-10-24 23:26:00,
2013-10-24 19:31:00,46.2,7.4,0.00,WNW,302,0.0,0.0,20,0.00,,---,0.00,VWS V14.01,2013-10-24 23:31:00,
2013-10-24 19:37:00,46.0,7.2,0.00,NW,311,0.0,0.0,20,0.00,,---,0.00,VWS V14.01,2013-10-24 23:37:00,
2013-10-24 19:42:00,45.7,6.9,0.00,NW,311,0.0,0.0,20,0.00,,---,0.00,VWS V14.01,2013-10-24 23:42:00,
2013-10-24 19:48:00,45.5,6.8,0.00,WNW,283,0.0,2.7,20,0.00,,---,0.00,VWS V14.01,2013-10-24 23:48:00,
2013-10-24 19:53:00,45.3,6.6,0.00,WNW,300,0.0,0.0,20,0.00,,---,0.00,VWS V14.01,2013-10-24 23:53:00,
2013-10-24 19:59:00,45.1,6.5,0.00,WNW,301,0.0,0.0,20,0.00,,---,0.00,VWS V14.01,2013-10-24 23:59:00,
2013-10-24 20:05:00,44.8,6.2,0.00,WNW,299,0.0,0.0,20,0.00,,---,0.00,VWS V14.01,2013-10-25 00:05:00,
2013-10-24 20:10:00,44.6,6.0,0.00,NW,326,0.0,0.0,20,0.00,,---,0.00,VWS V14.01,2013-10-25 00:10:00,
2013-10-24 20:16:00,44.6,6.0,0.00,NW,305,0.0,0.0,20,0.00,,---,0.00,VWS V14.01,2013-10-25 00:16:00,
2013-10-24 20:21:00,44.8,6.2,0.00,NW,318,0.0,0.0,20,0.00,,---,0.00,VWS V14.01,2013-10-25 00:21:00,
2013-10-24 20:27:00,44.8,6.2,0.00,WNW,296,0.0,0.0,20,0.00,,---,0.00,VWS V14.01,2013-10-25 00:27:00,
2013-10-24 20:33:00,44.6,6.0,0.00,NW,312,2.7,2.7,20,0.00,,---,0.00,VWS V14.01,2013-10-25 00:33:00,
2013-10-24 20:38:00,44.4,5.9,0.00,NW,318,0.0,0.0,20,0.00,,---,0.00,VWS V14.01,2013-10-25 00:38:00,
2013-10-24 20:44:00,44.1,5.6,0.00,NW,318,0.0,0.0,20,0.00,,---,0.00,VWS V14.01,2013-10-25 00:44:00,
2013-10-24 20:50:00,43.7,5.3,0.00,NW,318,0.0,0.0,20,0.00,,---,0.00,VWS V14.01,2013-10-25 00:50:00,
2013-10-24 20:55:00,43.3,5.0,0.00,NNW,337,0.0,0.0,20,0.00,,---,0.00,VWS V14.01,2013-10-25 00:55:00,
2013-10-24 21:00:00,43.3,5.0,0.00,NW,322,0.0,0.0,20,0.00,,---,0.00,VWS V14.01,2013-10-25 01:00:00,
2013-10-24 21:05:00,43.3,5.0,0.00,NNE,21,0.0,0.0,20,0.00,,---,0.00,VWS V14.01,2013-10-25 01:05:00,
2013-10-24 21:11:00,43.3,5.0,0.00,NW,323,0.0,0.0,20,0.00,,---,0.00,VWS V14.01,2013-10-25 01:11:00,
2013-10-24 21:16:00,43.3,5.0,0.00,NW,316,3.1,3.1,20,0.00,,---,0.00,VWS V14.01,2013-10-25 01:16:00,
2013-10-24 21:22:00,43.3,5.0,0.00,NW,314,0.0,0.0,20,0.00,,---,0.00,VWS V14.01,2013-10-25 01:22:00,
2013-10-24 21:27:00,43.2,4.8,0.00,WNW,283,0.0,0.0,20,0.00,,---,0.00,VWS V14.01,2013-10-25 01:27:00,
2013-10-24 21:33:00,43.2,4.8,0.00,NNW,334,0.0,0.0,20,0.00,,---,0.00,VWS V14.01,2013-10-25 01:33:00,
2013-10-24 21:39:00,43.0,4.7,0.00,NNW,345,0.0,0.0,20,0.00,,---,0.00,VWS V14.01,2013-10-25 01:39:00,
2013-10-24 21:44:00,42.8,4.5,0.00,NW,317,0.0,0.0,20,0.00,,---,0.00,VWS V14.01,2013-10-25 01:44:00,
2013-10-24 21:50:00,42.8,4.5,0.00,NW,310,0.0,0.0,20,0.00,,---,0.00,VWS V14.01,2013-10-25 01:50:00,
2013-10-24 21:55:00,42.6,5.4,0.00,NW,310,0.0,0.0,21,0.00,,---,0.00,VWS V14.01,2013-10-25 01:55:00,
2013-10-24 22:01:00,42.4,5.3,0.00,SSE,148,0.0,0.0,21,0.00,,---,0.00,VWS V14.01,2013-10-25 02:01:00,
2013-10-24 22:06:00,42.3,5.1,0.00,SE,143,0.0,0.0,21,0.00,,---,0.00,VWS V14.01,2013-10-25 02:06:00,
2013-10-24 22:12:00,42.3,5.1,0.00,SE,143,0.0,0.0,21,0.00,,---,0.00,VWS V14.01,2013-10-25 02:12:00,
2013-10-24 22:18:00,42.1,5.0,0.00,SE,143,0.0,0.0,21,0.00,,---,0.00,VWS V14.01,2013-10-25 02:18:00,
2013-10-24 22:23:00,41.9,4.8,0.00,SE,143,0.0,0.0,21,0.00,,---,0.00,VWS V14.01,2013-10-25 02:23:00,
2013-10-24 22:29:00,41.7,4.7,0.00,SE,143,0.0,0.0,21,0.00,,---,0.00,VWS V14.01,2013-10-25 02:29:00,
2013-10-24 22:34:00,41.5,4.5,0.00,SE,145,0.0,0.0,21,0.00,,---,0.00,VWS V14.01,2013-10-25 02:34:00,
2013-10-24 22:40:00,41.4,4.4,0.00,SE,145,0.0,0.0,21,0.00,,---,0.00,VWS V14.01,2013-10-25 02:40:00,
2013-10-24 22:46:00,41.2,4.2,0.00,SE,145,0.0,0.0,21,0.00,,---,0.00,VWS V14.01,2013-10-25 02:46:00,
2013-10-24 22:51:00,41.0,4.1,0.00,WSW,240,0.0,0.0,21,0.00,,---,0.00,VWS V14.01,2013-10-25 02:51:00,
2013-10-24 22:57:00,41.0,4.1,0.00,West,273,0.0,0.0,21,0.00,,---,0.00,VWS V14.01,2013-10-25 02:57:00,
2013-10-24 23:02:00,41.0,4.1,0.00,WNW,287,0.0,0.0,21,0.00,,---,0.00,VWS V14.01,2013-10-25 03:02:00,
2013-10-24 23:08:00,41.0,4.1,0.00,WNW,294,0.0,0.0,21,0.00,,---,0.00,VWS V14.01,2013-10-25 03:08:00,
2013-10-24 23:14:00,41.0,4.1,0.00,WNW,294,0.0,0.0,21,0.00,,---,0.00,VWS V14.01,2013-10-25 03:14:00,
2013-10-24 23:19:00,41.0,4.1,0.00,WNW,303,0.0,0.0,21,0.00,,---,0.00,VWS V14.01,2013-10-25 03:19:00,
2013-10-24 23:25:00,41.0,4.1,0.00,WNW,303,0.0,0.0,21,0.00,,---,0.00,VWS V14.01,2013-10-25 03:25:00,
2013-10-24 23:30:00,40.8,3.9,0.00,West,274,0.0,0.0,21,0.00,,---,0.00,VWS V14.01,2013-10-25 03:30:00,
2013-10-24 23:36:00,40.6,3.8,0.00,West,270,0.0,0.0,21,0.00,,---,0.00,VWS V14.01,2013-10-25 03:36:00,
2013-10-24 23:41:00,40.5,3.6,0.00,West,270,0.0,0.0,21,0.00,,---,0.00,VWS V14.01,2013-10-25 03:41:00,
2013-10-24 23:46:00,40.5,3.6,0.00,West,270,0.0,0.0,21,0.00,,---,0.00,VWS V14.01,2013-10-25 03:46:00,
2013-10-24 23:52:00,40.3,3.5,0.00,West,270,0.0,0.0,21,0.00,,---,0.00,VWS V14.01,2013-10-25 03:52:00,
2013-10-24 23:57:00,39.9,3.2,0.00,West,270,0.0,0.0,21,0.00,,---,0.00,VWS V14.01,2013-10-25 03:57:00,